createdAt,value
2022-11-23T00:00:37.785Z,7.89
2022-11-23T00:01:37.927Z,7.88
2022-11-23T00:02:38.161Z,7.89
2022-11-23T00:03:38.231Z,7.91
2022-11-23T00:04:38.377Z,7.91
2022-11-23T00:05:38.508Z,7.88
2022-11-23T00:06:38.637Z,7.89
2022-11-23T00:07:38.844Z,7.91
2022-11-23T00:08:38.888Z,7.95
2022-11-23T00:09:39.068Z,7.95
2022-11-23T00:10:39.198Z,7.94
2022-11-23T00:11:39.362Z,7.94
2022-11-23T00:12:39.517Z,7.92
2022-11-23T00:13:39.665Z,7.92
2022-11-23T00:14:39.878Z,7.94
2022-11-23T00:15:39.939Z,7.95
2022-11-23T00:16:40.117Z,7.95
2022-11-23T00:17:40.269Z,7.95
2022-11-23T00:18:40.370Z,7.96
2022-11-23T00:19:40.506Z,7.96
2022-11-23T00:20:40.648Z,7.99
2022-11-23T00:21:40.766Z,7.96
2022-11-23T00:22:40.915Z,7.95
2022-11-23T00:23:41.047Z,7.94
2022-11-23T00:24:41.239Z,7.96
2022-11-23T00:25:41.344Z,7.96
2022-11-23T00:26:41.495Z,7.96
2022-11-23T00:27:41.627Z,7.95
2022-11-23T00:28:41.777Z,7.96
2022-11-23T00:29:41.937Z,7.96
2022-11-23T00:30:42.072Z,8.00
2022-11-23T00:31:42.183Z,7.99
2022-11-23T00:32:42.318Z,7.99
2022-11-23T00:33:42.447Z,7.99
2022-11-23T00:34:42.625Z,7.99
2022-11-23T00:35:42.725Z,7.96
2022-11-23T00:36:42.885Z,7.96
2022-11-23T00:37:43.006Z,7.96
2022-11-23T00:38:43.126Z,7.99
2022-11-23T00:39:43.273Z,8.00
2022-11-23T00:40:43.414Z,8.00
2022-11-23T00:41:43.554Z,8.02
2022-11-23T00:42:43.642Z,7.99
2022-11-23T00:43:43.785Z,7.99
2022-11-23T00:44:43.967Z,7.95
2022-11-23T00:45:44.123Z,7.96
2022-11-23T00:46:44.253Z,7.96
2022-11-23T00:47:44.389Z,7.96
2022-11-23T00:48:44.503Z,7.99
2022-11-23T00:49:44.655Z,7.99
2022-11-23T00:50:44.794Z,7.99
2022-11-23T00:51:44.914Z,8.00
2022-11-23T00:52:45.036Z,8.02
2022-11-23T00:53:45.164Z,8.02
2022-11-23T00:54:45.342Z,8.03
2022-11-23T00:55:45.583Z,8.02
2022-11-23T00:56:45.606Z,8.03
2022-11-23T00:57:45.732Z,8.02
2022-11-23T00:58:45.882Z,8.02
2022-11-23T00:59:46.011Z,8.03
2022-11-23T01:00:46.193Z,8.02
2022-11-23T01:01:46.397Z,8.02
2022-11-23T01:02:46.483Z,8.02
2022-11-23T01:03:46.610Z,8.03
2022-11-23T01:04:46.774Z,8.00
2022-11-23T01:05:46.926Z,8.00
2022-11-23T01:06:47.066Z,8.02
2022-11-23T01:07:47.201Z,8.00
2022-11-23T01:08:47.274Z,7.99
2022-11-23T01:09:47.401Z,7.99
2022-11-23T01:10:47.564Z,8.02
2022-11-23T01:11:47.721Z,8.02
2022-11-23T01:12:47.852Z,8.02
2022-11-23T01:13:48.001Z,8.02
2022-11-23T01:14:48.123Z,8.02
2022-11-23T01:15:48.247Z,8.04
2022-11-23T01:16:48.368Z,8.04
2022-11-23T01:17:48.493Z,8.06
2022-11-23T01:18:48.623Z,8.06
2022-11-23T01:19:48.767Z,8.06
2022-11-23T01:20:48.901Z,8.09
2022-11-23T01:21:49.048Z,8.10
2022-11-23T01:22:49.176Z,8.09
2022-11-23T01:23:49.300Z,8.10
2022-11-23T01:24:49.429Z,8.10
2022-11-23T01:25:53.132Z,8.07
2022-11-23T01:26:50.750Z,8.09
2022-11-23T01:27:49.879Z,8.09
2022-11-23T01:28:50.014Z,8.07
2022-11-23T01:29:50.138Z,8.09
2022-11-23T01:30:50.280Z,8.09
2022-11-23T01:31:50.379Z,8.09
2022-11-23T01:32:50.490Z,8.09
2022-11-23T01:33:50.617Z,8.09
2022-11-23T01:34:50.771Z,8.09
2022-11-23T01:35:50.918Z,8.07
2022-11-23T01:36:51.037Z,8.09
2022-11-23T01:37:51.156Z,8.09
2022-11-23T01:38:51.286Z,8.07
2022-11-23T01:39:52.167Z,8.06
2022-11-23T01:40:51.537Z,8.09
2022-11-23T01:41:51.697Z,8.06
2022-11-23T01:42:51.817Z,8.04
2022-11-23T01:43:51.978Z,8.03
2022-11-23T01:44:52.097Z,8.06
2022-11-23T01:45:52.226Z,8.04
2022-11-23T01:46:52.348Z,8.04
2022-11-23T01:47:52.480Z,8.03
2022-11-23T01:48:52.619Z,8.03
2022-11-23T01:49:52.769Z,8.03
2022-11-23T01:50:54.337Z,8.04
2022-11-23T01:51:53.037Z,8.03
2022-11-23T01:52:53.168Z,8.02
2022-11-23T01:53:53.307Z,8.03
2022-11-23T01:54:53.468Z,8.03
2022-11-23T01:55:53.624Z,8.03
2022-11-23T01:56:53.744Z,8.04
2022-11-23T01:57:53.903Z,8.04
2022-11-23T01:58:54.049Z,8.06
2022-11-23T01:59:54.205Z,8.06
2022-11-23T02:00:54.358Z,8.07
2022-11-23T02:01:54.496Z,8.06
2022-11-23T02:02:54.651Z,8.06
2022-11-23T02:03:54.797Z,8.09
2022-11-23T02:04:54.885Z,8.10
2022-11-23T02:05:55.011Z,8.12
2022-11-23T02:06:55.125Z,8.13
2022-11-23T02:07:55.257Z,8.14
2022-11-23T02:08:56.125Z,8.17
2022-11-23T02:09:55.575Z,8.17
2022-11-23T02:10:55.704Z,8.17
2022-11-23T02:11:55.816Z,8.17
2022-11-23T02:12:55.935Z,8.20
2022-11-23T02:13:56.086Z,8.18
2022-11-23T02:14:56.214Z,8.18
2022-11-23T02:15:56.346Z,8.18
2022-11-23T02:16:56.496Z,8.18
2022-11-23T02:17:56.626Z,8.18
2022-11-23T02:18:56.793Z,8.20
2022-11-23T02:19:56.955Z,8.20
2022-11-23T02:20:57.075Z,8.18
2022-11-23T02:21:57.218Z,8.21
2022-11-23T02:22:57.358Z,8.21
2022-11-23T02:23:57.487Z,8.21
2022-11-23T02:24:57.618Z,8.17
2022-11-23T02:25:57.755Z,8.21
2022-11-23T02:26:57.910Z,8.20
2022-11-23T02:27:58.045Z,8.20
2022-11-23T02:28:58.185Z,8.21
2022-11-23T02:29:58.315Z,8.22
2022-11-23T02:30:58.443Z,8.22
2022-11-23T02:31:58.586Z,8.21
2022-11-23T02:32:58.685Z,8.22
2022-11-23T02:33:58.811Z,8.20
2022-11-23T02:34:58.973Z,8.20
2022-11-23T02:35:59.113Z,8.18
2022-11-23T02:36:59.279Z,8.21
2022-11-23T02:37:59.443Z,8.21
2022-11-23T02:38:59.592Z,8.21
2022-11-23T02:39:59.724Z,8.22
2022-11-23T02:40:59.883Z,8.22
2022-11-23T02:42:00.022Z,8.21
2022-11-23T02:43:00.172Z,8.21
2022-11-23T02:44:00.313Z,8.21
2022-11-23T02:45:00.462Z,8.21
2022-11-23T02:46:00.591Z,8.20
2022-11-23T02:47:00.788Z,8.22
2022-11-23T02:48:00.922Z,8.24
2022-11-23T02:49:01.012Z,8.24
2022-11-23T02:50:01.144Z,8.24
2022-11-23T02:51:01.276Z,8.22
2022-11-23T02:52:01.431Z,8.24
2022-11-23T02:53:01.552Z,8.25
2022-11-23T02:54:01.690Z,8.24
2022-11-23T02:55:01.845Z,8.25
2022-11-23T02:56:01.982Z,8.24
2022-11-23T02:57:02.071Z,8.22
2022-11-23T02:58:02.223Z,8.21
2022-11-23T02:59:02.382Z,8.22
2022-11-23T03:00:02.528Z,8.21
2022-11-23T03:01:02.670Z,8.21
2022-11-23T03:02:02.801Z,8.21
2022-11-23T03:03:02.929Z,8.21
2022-11-23T03:04:03.059Z,8.21
2022-11-23T03:05:03.223Z,8.17
2022-11-23T03:06:03.381Z,8.20
2022-11-23T03:07:03.508Z,8.20
2022-11-23T03:08:03.622Z,8.20
2022-11-23T03:09:03.763Z,8.20
2022-11-23T03:10:03.852Z,8.20
2022-11-23T03:11:03.970Z,8.22
2022-11-23T03:12:04.091Z,8.21
2022-11-23T03:13:04.248Z,8.21
2022-11-23T03:14:04.381Z,8.24
2022-11-23T03:15:04.508Z,8.24
2022-11-23T03:16:04.619Z,8.22
2022-11-23T03:17:04.761Z,8.22
2022-11-23T03:18:04.932Z,8.22
2022-11-23T03:19:05.028Z,8.21
2022-11-23T03:20:05.149Z,8.21
2022-11-23T03:21:05.283Z,8.22
2022-11-23T03:22:05.410Z,8.21
2022-11-23T03:23:05.549Z,8.21
2022-11-23T03:24:05.648Z,8.21
2022-11-23T03:25:05.808Z,8.21
2022-11-23T03:26:11.332Z,8.21
2022-11-23T03:27:07.037Z,8.22
2022-11-23T03:28:06.168Z,8.22
2022-11-23T03:29:06.338Z,8.24
2022-11-23T03:30:06.509Z,8.25
2022-11-23T03:31:06.610Z,8.28
2022-11-23T03:32:06.730Z,8.29
2022-11-23T03:33:06.879Z,8.32
2022-11-23T03:34:07.018Z,8.32
2022-11-23T03:35:07.147Z,8.32
2022-11-23T03:36:07.298Z,8.34
2022-11-23T03:37:07.426Z,8.32
2022-11-23T03:38:07.609Z,8.32
2022-11-23T03:39:07.708Z,8.32
2022-11-23T03:40:07.857Z,8.36
2022-11-23T03:41:07.985Z,8.37
2022-11-23T03:42:08.117Z,8.39
2022-11-23T03:43:08.278Z,8.39
2022-11-23T03:44:08.411Z,8.37
2022-11-23T03:45:08.560Z,8.39
2022-11-23T03:46:08.681Z,8.34
2022-11-23T03:47:08.848Z,8.37
2022-11-23T03:48:08.980Z,8.36
2022-11-23T03:49:09.107Z,8.34
2022-11-23T03:50:09.260Z,8.34
2022-11-23T03:51:09.389Z,8.36
2022-11-23T03:52:09.528Z,8.36
2022-11-23T03:53:09.673Z,8.32
2022-11-23T03:54:09.786Z,8.37
2022-11-23T03:55:09.919Z,8.36
2022-11-23T03:56:10.047Z,8.34
2022-11-23T03:57:10.186Z,8.32
2022-11-23T03:58:10.327Z,8.29
2022-11-23T03:59:10.457Z,8.29
2022-11-23T04:00:10.644Z,8.27
2022-11-23T04:01:10.775Z,8.25
2022-11-23T04:02:10.924Z,8.27
2022-11-23T04:03:10.997Z,8.27
2022-11-23T04:04:11.158Z,8.25
2022-11-23T04:05:11.317Z,8.27
2022-11-23T04:06:11.445Z,8.24
2022-11-23T04:07:11.625Z,8.24
2022-11-23T04:08:11.736Z,8.22
2022-11-23T04:09:11.854Z,8.22
2022-11-23T04:10:12.034Z,8.21
2022-11-23T04:11:12.176Z,8.22
2022-11-23T04:12:12.296Z,8.22
2022-11-23T04:13:12.415Z,8.22
2022-11-23T04:14:12.555Z,8.20
2022-11-23T04:15:12.658Z,8.22
2022-11-23T04:16:12.773Z,8.24
2022-11-23T04:17:12.903Z,8.22
2022-11-23T04:18:13.054Z,8.22
2022-11-23T04:19:13.189Z,8.22
2022-11-23T04:20:13.353Z,8.24
2022-11-23T04:21:13.517Z,8.25
2022-11-23T04:22:13.663Z,8.22
2022-11-23T04:23:13.868Z,8.24
2022-11-23T04:24:13.975Z,8.21
2022-11-23T04:25:14.141Z,8.21
2022-11-23T04:26:14.243Z,8.20
2022-11-23T04:27:14.382Z,8.20
2022-11-23T04:28:14.533Z,8.18
2022-11-23T04:29:14.706Z,8.18
2022-11-23T04:30:14.785Z,8.17
2022-11-23T04:31:14.945Z,8.18
2022-11-23T04:32:15.090Z,8.20
2022-11-23T04:33:15.225Z,8.17
2022-11-23T04:34:15.371Z,8.17
2022-11-23T04:35:15.578Z,8.18
2022-11-23T04:36:15.642Z,8.17
2022-11-23T04:37:16.523Z,8.17
2022-11-23T04:38:15.974Z,8.20
2022-11-23T04:39:16.146Z,8.21
2022-11-23T04:40:16.281Z,8.22
2022-11-23T04:41:16.412Z,8.22
2022-11-23T04:42:16.531Z,8.22
2022-11-23T04:43:16.661Z,8.24
2022-11-23T04:44:16.797Z,8.25
2022-11-23T04:45:16.932Z,8.25
2022-11-23T04:46:17.073Z,8.25
2022-11-23T04:47:17.337Z,8.32
2022-11-23T04:48:17.369Z,8.29
2022-11-23T04:49:17.579Z,8.31
2022-11-23T04:50:17.888Z,8.31
2022-11-23T04:51:17.789Z,8.32
2022-11-23T04:52:17.930Z,8.36
2022-11-23T04:53:18.089Z,8.29
2022-11-23T04:54:18.228Z,8.34
2022-11-23T04:55:18.383Z,8.32
2022-11-23T04:56:18.522Z,8.36
2022-11-23T04:57:18.649Z,8.32
2022-11-23T04:58:19.520Z,8.36
2022-11-23T04:59:19.630Z,8.32
2022-11-23T05:00:19.738Z,8.31
2022-11-23T05:01:19.204Z,8.34
2022-11-23T05:02:19.269Z,8.34
2022-11-23T05:03:19.400Z,8.31
2022-11-23T05:04:19.553Z,8.31
2022-11-23T05:05:19.718Z,8.29
2022-11-23T05:06:19.845Z,8.25
2022-11-23T05:07:20.001Z,8.24
2022-11-23T05:08:20.078Z,8.27
2022-11-23T05:09:20.200Z,8.25
2022-11-23T05:10:20.397Z,8.27
2022-11-23T05:11:20.512Z,8.28
2022-11-23T05:12:20.644Z,8.29
2022-11-23T05:13:20.770Z,8.27
2022-11-23T05:14:20.928Z,8.25
2022-11-23T05:15:21.140Z,8.27
2022-11-23T05:16:21.219Z,8.25
2022-11-23T05:17:21.366Z,8.24
2022-11-23T05:18:21.519Z,8.24
2022-11-23T05:19:21.651Z,8.21
2022-11-23T05:20:21.767Z,8.22
2022-11-23T05:21:21.897Z,8.22
2022-11-23T05:22:22.046Z,8.24
2022-11-23T05:23:22.179Z,8.22
2022-11-23T05:24:22.307Z,8.22
2022-11-23T05:25:22.498Z,8.24
2022-11-23T05:26:22.640Z,8.22
2022-11-23T05:27:22.835Z,8.22
2022-11-23T05:28:39.503Z,8.21
2022-11-23T05:29:24.123Z,8.21
2022-11-23T05:30:23.228Z,8.22
2022-11-23T05:31:23.368Z,8.21
2022-11-23T05:32:23.516Z,8.20
2022-11-23T05:33:23.635Z,8.22
2022-11-23T05:34:24.686Z,8.21
2022-11-23T05:35:23.910Z,8.20
2022-11-23T05:36:24.076Z,8.20
2022-11-23T05:37:24.206Z,8.21
2022-11-23T05:38:24.335Z,8.21
2022-11-23T05:39:24.465Z,8.21
2022-11-23T05:40:24.577Z,8.22
2022-11-23T05:41:24.703Z,8.25
2022-11-23T05:42:24.851Z,8.25
2022-11-23T05:43:24.995Z,8.25
2022-11-23T05:44:25.076Z,8.24
2022-11-23T05:45:25.359Z,8.24
2022-11-23T05:46:25.325Z,8.22
2022-11-23T05:47:25.444Z,8.22
2022-11-23T05:48:25.576Z,8.24
2022-11-23T05:49:25.693Z,8.22
2022-11-23T05:50:25.814Z,8.22
2022-11-23T05:51:25.956Z,8.22
2022-11-23T05:52:26.073Z,8.21
2022-11-23T05:53:26.243Z,8.21
2022-11-23T05:54:26.359Z,8.18
2022-11-23T05:55:26.493Z,8.22
2022-11-23T05:56:26.645Z,8.24
2022-11-23T05:57:26.787Z,8.21
2022-11-23T05:58:26.945Z,8.22
2022-11-23T05:59:27.094Z,8.18
2022-11-23T06:00:27.253Z,8.21
2022-11-23T06:01:27.383Z,8.18
2022-11-23T06:02:27.503Z,8.20
2022-11-23T06:03:27.634Z,8.20
2022-11-23T06:04:27.874Z,8.20
2022-11-23T06:05:29.384Z,8.17
2022-11-23T06:06:28.115Z,8.18
2022-11-23T06:07:29.050Z,8.18
2022-11-23T06:08:28.483Z,8.20
2022-11-23T06:09:28.549Z,8.20
2022-11-23T06:10:28.674Z,8.20
2022-11-23T06:11:28.820Z,8.18
2022-11-23T06:12:28.950Z,8.20
2022-11-23T06:13:29.081Z,8.18
2022-11-23T06:14:29.243Z,8.20
2022-11-23T06:15:29.422Z,8.17
2022-11-23T06:16:29.543Z,8.20
2022-11-23T06:17:29.732Z,8.17
2022-11-23T06:18:29.833Z,8.21
2022-11-23T06:19:30.354Z,8.21
2022-11-23T06:20:30.075Z,8.20
2022-11-23T06:21:30.222Z,8.20
2022-11-23T06:22:30.361Z,8.21
2022-11-23T06:23:30.503Z,8.18
2022-11-23T06:24:30.660Z,8.17
2022-11-23T06:25:30.810Z,8.17
2022-11-23T06:26:30.982Z,8.17
2022-11-23T06:27:31.152Z,8.17
2022-11-23T06:28:31.243Z,8.17
2022-11-23T06:29:31.706Z,8.13
2022-11-23T06:30:31.482Z,8.14
2022-11-23T06:31:31.663Z,8.14
2022-11-23T06:32:31.843Z,8.13
2022-11-23T06:33:31.852Z,8.13
2022-11-23T06:34:31.972Z,8.14
2022-11-23T06:35:32.099Z,8.14
2022-11-23T06:36:32.253Z,8.14
2022-11-23T06:37:32.378Z,8.13
2022-11-23T06:38:32.511Z,8.12
2022-11-23T06:39:32.978Z,8.13
2022-11-23T06:40:32.821Z,8.12
2022-11-23T06:41:32.949Z,8.12
2022-11-23T06:42:40.468Z,8.13
2022-11-23T06:43:34.281Z,8.10
2022-11-23T06:44:33.401Z,8.12
2022-11-23T06:45:34.260Z,8.10
2022-11-23T06:46:33.688Z,8.10
2022-11-23T06:47:33.857Z,8.10
2022-11-23T06:48:34.028Z,8.12
2022-11-23T06:49:34.383Z,8.09
2022-11-23T06:50:34.338Z,8.10
2022-11-23T06:51:34.500Z,8.09
2022-11-23T06:52:34.817Z,8.10
2022-11-23T06:53:34.999Z,8.10
2022-11-23T06:54:34.910Z,8.09
2022-11-23T06:55:35.068Z,8.07
2022-11-23T06:56:35.930Z,8.09
2022-11-23T06:57:35.330Z,8.07
2022-11-23T06:58:36.063Z,8.07
2022-11-23T06:59:39.451Z,8.07
2022-11-23T07:00:36.669Z,8.06
2022-11-23T07:01:35.827Z,8.06
2022-11-23T07:02:35.959Z,8.07
2022-11-23T07:03:36.245Z,8.06
2022-11-23T07:04:36.998Z,8.06
2022-11-23T07:05:37.120Z,8.07
2022-11-23T07:06:36.821Z,8.09
2022-11-23T07:07:37.512Z,8.09
2022-11-23T07:08:36.750Z,8.09
2022-11-23T07:09:36.943Z,8.07
2022-11-23T07:10:37.097Z,8.10
2022-11-23T07:11:37.233Z,8.09
2022-11-23T07:12:37.369Z,8.09
2022-11-23T07:13:37.548Z,8.10
2022-11-23T07:14:37.689Z,8.10
2022-11-23T07:15:37.846Z,8.09
2022-11-23T07:16:37.987Z,8.12
2022-11-23T07:17:38.177Z,8.10
2022-11-23T07:18:38.252Z,8.09
2022-11-23T07:19:38.376Z,8.09
2022-11-23T07:20:38.588Z,8.09
2022-11-23T07:21:38.688Z,8.09
2022-11-23T07:22:38.856Z,8.10
2022-11-23T07:23:38.969Z,8.07
2022-11-23T07:24:43.891Z,8.10
2022-11-23T07:25:40.338Z,8.10
2022-11-23T07:26:39.455Z,8.13
2022-11-23T07:27:39.563Z,8.12
2022-11-23T07:28:39.656Z,8.12
2022-11-23T07:29:39.853Z,8.13
2022-11-23T07:30:39.971Z,8.13
2022-11-23T07:31:40.054Z,8.14
2022-11-23T07:32:40.204Z,8.17
2022-11-23T07:33:40.376Z,8.20
2022-11-23T07:34:40.546Z,8.20
2022-11-23T07:35:40.640Z,8.21
2022-11-23T07:36:40.789Z,8.21
2022-11-23T07:37:40.937Z,8.21
2022-11-23T07:38:41.098Z,8.22
2022-11-23T07:39:56.883Z,8.22
2022-11-23T07:40:42.385Z,8.25
2022-11-23T07:41:41.514Z,8.25
2022-11-23T07:42:45.043Z,8.24
2022-11-23T07:43:41.795Z,8.25
2022-11-23T07:44:41.955Z,8.28
2022-11-23T07:45:42.087Z,8.28
2022-11-23T07:46:42.243Z,8.28
2022-11-23T07:47:42.373Z,8.27
2022-11-23T07:48:42.517Z,8.28
2022-11-23T07:49:42.720Z,8.31
2022-11-23T07:50:42.875Z,8.31
2022-11-23T07:51:43.026Z,8.32
2022-11-23T07:52:43.207Z,8.29
2022-11-23T07:53:43.374Z,8.31
2022-11-23T07:54:43.557Z,8.31
2022-11-23T07:55:43.636Z,8.31
2022-11-23T07:56:43.806Z,8.32
2022-11-23T07:57:43.942Z,8.34
2022-11-23T07:58:44.095Z,8.34
2022-11-23T07:59:44.152Z,8.34
2022-11-23T08:00:44.316Z,8.36
2022-11-23T08:01:48.518Z,8.37
2022-11-23T08:03:11.503Z,8.36
2022-11-23T08:03:45.788Z,8.37
2022-11-23T08:04:44.916Z,8.39
2022-11-23T08:05:44.981Z,8.40
2022-11-23T08:06:45.124Z,8.40
2022-11-23T08:07:45.272Z,8.42
2022-11-23T08:08:45.406Z,8.45
2022-11-23T08:09:45.474Z,8.45
2022-11-23T08:10:51.383Z,8.47
2022-11-23T08:11:46.721Z,8.49
2022-11-23T08:12:45.862Z,8.46
2022-11-23T08:13:46.088Z,8.49
2022-11-23T08:14:46.180Z,8.50
2022-11-23T08:15:51.826Z,8.47
2022-11-23T08:16:47.412Z,8.50
2022-11-23T08:17:46.514Z,8.47
2022-11-23T08:18:46.627Z,8.47
2022-11-23T08:19:46.694Z,8.47
2022-11-23T08:20:46.849Z,8.49
2022-11-23T08:21:46.934Z,8.47
2022-11-23T08:22:47.162Z,8.49
2022-11-23T08:23:47.209Z,8.49
2022-11-23T08:24:47.375Z,8.52
2022-11-23T08:25:47.482Z,8.50
2022-11-23T08:26:47.644Z,8.54
2022-11-23T08:27:47.801Z,8.52
2022-11-23T08:28:47.941Z,8.50
2022-11-23T08:29:48.118Z,8.55
2022-11-23T08:30:48.290Z,8.60
2022-11-23T08:31:49.250Z,8.57
2022-11-23T08:32:48.598Z,8.58
2022-11-23T08:33:48.781Z,8.63
2022-11-23T08:34:48.880Z,8.65
2022-11-23T08:35:50.478Z,8.67
2022-11-23T08:36:49.230Z,8.67
2022-11-23T08:37:50.059Z,8.67
2022-11-23T08:38:50.173Z,8.63
2022-11-23T08:39:50.138Z,8.65
2022-11-23T08:40:51.171Z,8.68
2022-11-23T08:41:49.876Z,8.67
2022-11-23T08:42:50.052Z,8.65
2022-11-23T08:43:50.200Z,8.67
2022-11-23T08:44:50.341Z,8.68
2022-11-23T08:45:50.540Z,8.70
2022-11-23T08:46:50.660Z,8.71
2022-11-23T08:47:51.028Z,8.71
2022-11-23T08:48:51.079Z,8.73
2022-11-23T08:49:51.061Z,8.75
2022-11-23T08:50:51.628Z,8.73
2022-11-23T08:51:51.382Z,8.80
2022-11-23T08:52:51.519Z,8.80
2022-11-23T08:53:51.627Z,8.83
2022-11-23T08:54:51.809Z,8.88
2022-11-23T08:55:51.959Z,8.93
2022-11-23T08:56:52.129Z,8.88
2022-11-23T08:57:52.228Z,8.89
2022-11-23T08:58:52.486Z,8.93
2022-11-23T08:59:52.485Z,8.91
2022-11-23T09:00:52.666Z,8.93
2022-11-23T09:01:52.839Z,8.96
2022-11-23T09:02:52.969Z,8.97
2022-11-23T09:03:53.083Z,8.96
2022-11-23T09:04:53.206Z,8.93
2022-11-23T09:05:53.338Z,8.97
2022-11-23T09:06:53.477Z,9.06
2022-11-23T09:07:53.667Z,9.00
2022-11-23T09:08:53.786Z,9.04
2022-11-23T09:09:53.948Z,9.06
2022-11-23T09:10:54.085Z,9.01
2022-11-23T09:11:54.171Z,9.08
2022-11-23T09:12:54.278Z,9.15
2022-11-23T09:13:54.402Z,9.19
2022-11-23T09:14:54.585Z,9.23
2022-11-23T09:15:54.756Z,9.30
2022-11-23T09:16:54.807Z,9.31
2022-11-23T09:17:54.947Z,9.31
2022-11-23T09:18:55.094Z,9.32
2022-11-23T09:19:55.234Z,9.30
2022-11-23T09:20:55.435Z,9.27
2022-11-23T09:21:55.514Z,9.34
2022-11-23T09:22:55.674Z,9.37
2022-11-23T09:23:55.894Z,9.41
2022-11-23T09:24:56.081Z,9.50
2022-11-23T09:25:56.088Z,9.58
2022-11-23T09:26:56.234Z,9.56
2022-11-23T09:27:56.337Z,9.63
2022-11-23T09:28:56.490Z,9.70
2022-11-23T09:29:56.583Z,9.73
2022-11-23T09:30:56.738Z,9.85
2022-11-23T09:31:56.905Z,9.86
2022-11-23T09:32:57.079Z,9.89
2022-11-23T09:33:57.226Z,9.93
2022-11-23T09:34:57.335Z,9.95
2022-11-23T09:35:57.446Z,10.01
2022-11-23T09:36:57.577Z,10.11
2022-11-23T09:37:57.663Z,10.25
2022-11-23T09:38:57.910Z,10.62
2022-11-23T09:39:57.919Z,10.84
2022-11-23T09:40:58.025Z,11.12
2022-11-23T09:41:58.144Z,11.33
2022-11-23T09:42:58.267Z,11.69
2022-11-23T09:43:58.427Z,12.15
2022-11-23T09:44:58.518Z,12.48
2022-11-23T09:45:58.624Z,12.21
2022-11-23T09:46:58.784Z,12.25
2022-11-23T09:47:58.874Z,12.41
2022-11-23T09:48:59.007Z,12.34
2022-11-23T09:49:59.120Z,12.69
2022-11-23T09:50:59.214Z,12.85
2022-11-23T09:51:59.328Z,12.98
2022-11-23T09:52:59.454Z,13.01
2022-11-23T09:53:59.556Z,13.28
2022-11-23T09:54:59.693Z,13.21
2022-11-23T09:55:59.807Z,13.16
2022-11-23T09:57:01.857Z,13.41
2022-11-23T09:58:00.141Z,13.22
2022-11-23T09:59:00.241Z,13.29
2022-11-23T10:00:00.336Z,13.19
2022-11-23T10:01:00.442Z,13.10
2022-11-23T10:02:00.674Z,13.22
2022-11-23T10:03:00.697Z,12.88
2022-11-23T10:04:00.801Z,13.22
2022-11-23T10:05:00.914Z,13.17
2022-11-23T10:06:01.036Z,13.41
2022-11-23T10:07:01.164Z,13.31
2022-11-23T10:08:01.275Z,13.32
2022-11-23T10:09:01.402Z,12.79
2022-11-23T10:10:01.504Z,12.71
2022-11-23T10:11:01.664Z,12.54
2022-11-23T10:12:01.745Z,12.52
2022-11-23T10:13:01.911Z,12.46
2022-11-23T10:14:02.017Z,12.38
2022-11-23T10:15:02.165Z,12.22
2022-11-23T10:16:02.239Z,12.07
2022-11-23T10:17:02.396Z,11.88
2022-11-23T10:18:02.521Z,11.96
2022-11-23T10:19:02.665Z,11.96
2022-11-23T10:20:02.763Z,12.01
2022-11-23T10:21:02.865Z,12.01
2022-11-23T10:22:03.006Z,11.93
2022-11-23T10:23:03.105Z,11.90
2022-11-23T10:24:03.324Z,11.93
2022-11-23T10:25:03.344Z,12.00
2022-11-23T10:26:03.458Z,12.22
2022-11-23T10:27:03.633Z,12.19
2022-11-23T10:28:03.684Z,12.29
2022-11-23T10:29:03.806Z,12.54
2022-11-23T10:30:03.947Z,12.51
2022-11-23T10:31:04.034Z,11.75
2022-11-23T10:32:04.148Z,11.90
2022-11-23T10:33:04.297Z,12.15
2022-11-23T10:34:04.404Z,12.69
2022-11-23T10:35:04.532Z,12.99
2022-11-23T10:36:04.641Z,13.01
2022-11-23T10:37:04.746Z,13.25
2022-11-23T10:38:04.886Z,13.25
2022-11-23T10:39:04.987Z,13.53
2022-11-23T10:40:05.107Z,13.50
2022-11-23T10:41:05.217Z,13.61
2022-11-23T10:42:05.294Z,13.76
2022-11-23T10:43:05.466Z,13.91
2022-11-23T10:44:05.576Z,14.09
2022-11-23T10:45:05.694Z,13.93
2022-11-23T10:46:05.803Z,13.66
2022-11-23T10:47:05.915Z,13.59
2022-11-23T10:48:06.012Z,13.99
2022-11-23T10:49:06.135Z,14.16
2022-11-23T10:50:06.234Z,14.23
2022-11-23T10:51:06.374Z,14.49
2022-11-23T10:52:06.477Z,14.27
2022-11-23T10:53:06.576Z,14.26
2022-11-23T10:54:06.696Z,14.57
2022-11-23T10:55:06.814Z,14.42
2022-11-23T10:56:06.941Z,14.49
2022-11-23T10:57:07.077Z,14.60
2022-11-23T10:58:07.155Z,14.61
2022-11-23T10:59:07.295Z,14.26
2022-11-23T11:00:07.405Z,13.86
2022-11-23T11:01:07.512Z,14.45
2022-11-23T11:02:07.684Z,14.60
2022-11-23T11:03:07.755Z,14.67
2022-11-23T11:04:07.876Z,14.69
2022-11-23T11:05:07.983Z,14.46
2022-11-23T11:06:09.899Z,14.75
2022-11-23T11:07:08.295Z,14.80
2022-11-23T11:08:08.325Z,14.79
2022-11-23T11:09:13.279Z,15.03
2022-11-23T11:10:09.618Z,14.97
2022-11-23T11:11:08.759Z,15.12
2022-11-23T11:12:08.877Z,15.11
2022-11-23T11:13:08.989Z,14.93
2022-11-23T11:14:09.110Z,14.56
2022-11-23T11:15:11.835Z,14.54
2022-11-23T11:16:09.365Z,14.38
2022-11-23T11:17:09.497Z,13.96
2022-11-23T11:18:09.599Z,13.69
2022-11-23T11:19:09.719Z,13.14
2022-11-23T11:20:09.817Z,12.92
2022-11-23T11:21:10.030Z,12.91
2022-11-23T11:22:10.122Z,12.81
2022-11-23T11:23:10.250Z,12.88
2022-11-23T11:24:10.346Z,12.70
2022-11-23T11:25:10.458Z,12.44
2022-11-23T11:26:10.570Z,12.08
2022-11-23T11:27:10.727Z,11.87
2022-11-23T11:28:10.825Z,11.79
2022-11-23T11:29:11.002Z,11.81
2022-11-23T11:30:11.053Z,11.93
2022-11-23T11:31:11.169Z,11.94
2022-11-23T11:32:11.283Z,11.94
2022-11-23T11:33:11.426Z,11.87
2022-11-23T11:34:11.570Z,11.88
2022-11-23T11:35:13.642Z,11.90
2022-11-23T11:36:12.778Z,11.84
2022-11-23T11:37:11.938Z,11.82
2022-11-23T11:38:12.035Z,11.84
2022-11-23T11:39:18.793Z,11.85
2022-11-23T11:40:13.281Z,11.90
2022-11-23T11:41:12.377Z,11.97
2022-11-23T11:42:12.500Z,12.04
2022-11-23T11:43:12.616Z,12.01
2022-11-23T11:44:12.777Z,11.97
2022-11-23T11:45:12.910Z,11.96
2022-11-23T11:46:29.780Z,12.08
2022-11-23T11:47:14.118Z,12.23
2022-11-23T11:48:13.279Z,11.94
2022-11-23T11:49:13.384Z,12.05
2022-11-23T11:50:13.483Z,12.19
2022-11-23T11:51:13.597Z,12.29
2022-11-23T11:52:13.752Z,12.36
2022-11-23T11:53:13.862Z,12.29
2022-11-23T11:54:13.997Z,12.29
2022-11-23T11:55:14.073Z,12.19
2022-11-23T11:56:14.240Z,12.22
2022-11-23T11:57:14.331Z,12.37
2022-11-23T11:58:14.521Z,12.54
2022-11-23T11:59:14.658Z,12.63
2022-11-23T12:00:14.746Z,12.63
2022-11-23T12:01:14.866Z,12.59
2022-11-23T12:02:14.985Z,12.51
2022-11-23T12:03:15.160Z,12.51
2022-11-23T12:04:15.240Z,12.44
2022-11-23T12:05:15.323Z,12.54
2022-11-23T12:06:15.458Z,12.46
2022-11-23T12:07:15.673Z,12.37
2022-11-23T12:08:15.738Z,12.54
2022-11-23T12:09:15.959Z,12.62
2022-11-23T12:10:16.043Z,12.77
2022-11-23T12:11:16.099Z,13.51
2022-11-23T12:12:16.246Z,14.23
2022-11-23T12:13:16.353Z,14.78
2022-11-23T12:14:16.540Z,14.71
2022-11-23T12:15:47.247Z,14.95
2022-11-23T12:16:17.826Z,15.11
2022-11-23T12:17:32.555Z,15.31
2022-11-23T12:18:18.028Z,15.18
2022-11-23T12:19:17.156Z,15.49
2022-11-23T12:20:17.288Z,15.86
2022-11-23T12:21:17.425Z,15.93
2022-11-23T12:22:17.626Z,15.55
2022-11-23T12:23:17.628Z,14.95
2022-11-23T12:24:17.808Z,14.75
2022-11-23T12:25:17.936Z,15.25
2022-11-23T12:26:18.058Z,15.35
2022-11-23T12:27:18.154Z,15.74
2022-11-23T12:28:18.288Z,15.86
2022-11-23T12:29:18.402Z,15.73
2022-11-23T12:30:18.559Z,15.55
2022-11-23T12:31:18.646Z,15.62
2022-11-23T12:32:18.761Z,15.67
2022-11-23T12:33:18.876Z,15.16
2022-11-23T12:34:19.001Z,15.12
2022-11-23T12:35:19.834Z,15.34
2022-11-23T12:36:22.333Z,15.28
2022-11-23T12:37:19.345Z,15.58
2022-11-23T12:38:19.497Z,15.03
2022-11-23T12:39:19.658Z,15.09
2022-11-23T12:40:19.758Z,15.43
2022-11-23T12:41:19.859Z,15.96
2022-11-23T12:42:19.977Z,16.08
2022-11-23T12:43:20.082Z,16.55
2022-11-23T12:44:20.239Z,16.57
2022-11-23T12:45:20.470Z,16.52
2022-11-23T12:46:20.497Z,16.72
2022-11-23T12:47:20.620Z,16.98
2022-11-23T12:48:20.719Z,16.69
2022-11-23T12:49:20.824Z,16.59
2022-11-23T12:50:20.932Z,16.52
2022-11-23T12:51:21.033Z,16.36
2022-11-23T12:52:21.191Z,16.59
2022-11-23T12:53:21.334Z,16.07
2022-11-23T12:54:21.442Z,14.63
2022-11-23T12:55:21.562Z,15.18
2022-11-23T12:56:21.706Z,15.55
2022-11-23T12:57:21.805Z,14.44
2022-11-23T12:58:21.922Z,13.46
2022-11-23T12:59:22.056Z,12.67
2022-11-23T13:00:22.169Z,12.89
2022-11-23T13:01:26.349Z,13.79
2022-11-23T13:02:23.486Z,15.19
2022-11-23T13:03:23.191Z,14.41
2022-11-23T13:04:22.613Z,13.36
2022-11-23T13:05:22.714Z,13.35
2022-11-23T13:06:22.920Z,14.20
2022-11-23T13:07:35.985Z,13.75
2022-11-23T13:08:24.093Z,13.66
2022-11-23T13:09:23.193Z,14.17
2022-11-23T13:10:23.311Z,15.05
2022-11-23T13:11:23.392Z,15.25
2022-11-23T13:12:23.548Z,14.59
2022-11-23T13:13:23.652Z,13.44